Time;durP1;ratioP1;P1;durP2;ratioP2;P2;SDS_P1;SDS_P2;PMS_P1;PMS_P2;Temp;Humidity;BMP_temperature;BMP_pressure;BME280_temperature;BME280_humidity;BME280_pressure;Samples;Min_cycle;Max_cycle;Signal;HPM_P1;HPM_P2
2022/07/31 00:00:02;;;;;;;4.45;1.48;;;9.00;99.90;;;;;;5054119;28;20031;-77
2022/07/31 00:02:29;;;;;;;4.25;1.30;;;9.10;99.90;;;;;;5054784;28;20045;-75
2022/07/31 00:04:56;;;;;;;2.97;1.40;;;9.10;99.90;;;;;;5055036;28;20489;-77
2022/07/31 00:07:24;;;;;;;4.63;1.70;;;9.20;99.90;;;;;;5054866;28;20033;-77
2022/07/31 00:09:51;;;;;;;6.40;1.42;;;9.20;99.90;;;;;;5055030;28;20025;-77
2022/07/31 00:12:20;;;;;;;4.72;0.80;;;9.30;99.90;;;;;;5054772;28;20024;-73
2022/07/31 00:14:48;;;;;;;1.73;0.80;;;9.40;99.90;;;;;;5054480;28;20075;-78
2022/07/31 00:17:15;;;;;;;3.17;1.17;;;9.40;99.90;;;;;;5054709;28;20561;-75
2022/07/31 00:19:51;;;;;;;12.20;1.67;;;9.50;99.90;;;;;;5054669;28;20029;-77
2022/07/31 00:22:27;;;;;;;3.33;0.82;;;9.50;99.90;;;;;;5054786;28;20071;-76
2022/07/31 00:24:55;;;;;;;3.45;1.13;;;9.60;99.90;;;;;;5054781;28;20028;-73
2022/07/31 00:27:22;;;;;;;6.82;1.60;;;9.70;99.90;;;;;;5053993;28;20083;-76
2022/07/31 00:29:50;;;;;;;2.50;1.42;;;9.70;99.90;;;;;;5054545;28;20031;-77
2022/07/31 00:32:17;;;;;;;4.10;1.65;;;9.80;99.90;;;;;;5054709;28;20029;-77
2022/07/31 00:34:45;;;;;;;2.67;1.17;;;9.80;99.90;;;;;;5054213;28;20017;-77
2022/07/31 00:37:12;;;;;;;5.03;0.93;;;9.90;99.90;;;;;;5054369;28;20029;-73
2022/07/31 00:39:39;;;;;;;2.92;0.90;;;10.00;99.90;;;;;;5054377;28;20036;-78
2022/07/31 00:42:20;;;;;;;1.55;0.80;;;10.00;99.90;;;;;;5054432;28;20390;-78
2022/07/31 00:44:48;;;;;;;5.00;1.08;;;10.10;99.90;;;;;;5054277;28;20021;-77
2022/07/31 00:47:18;;;;;;;1.65;0.70;;;10.20;99.90;;;;;;5054501;28;20032;-73
2022/07/31 00:49:48;;;;;;;1.45;0.70;;;10.30;99.90;;;;;;5054159;28;20025;-73
2022/07/31 00:52:16;;;;;;;8.10;1.63;;;10.40;99.90;;;;;;5054053;28;20086;-75
2022/07/31 00:54:43;;;;;;;3.22;0.82;;;10.50;99.90;;;;;;5053761;28;20422;-76
2022/07/31 00:57:10;;;;;;;4.10;1.15;;;10.60;99.90;;;;;;5053936;28;20059;-76
2022/07/31 00:59:38;;;;;;;1.35;0.80;;;10.70;99.90;;;;;;5052801;28;20017;-77
2022/07/31 01:02:07;;;;;;;1.55;0.88;;;10.70;99.90;;;;;;5053860;28;20090;-72
2022/07/31 01:04:37;;;;;;;1.92;1.00;;;10.80;99.90;;;;;;5054083;28;20021;-72
2022/07/31 01:07:04;;;;;;;2.85;1.00;;;10.90;99.90;;;;;;5054021;28;20527;-76
2022/07/31 01:09:32;;;;;;;1.90;0.70;;;11.00;99.90;;;;;;5053799;28;20108;-76
2022/07/31 01:13:07;;;;;;;4.15;1.50;;;11.10;99.90;;;;;;5053794;28;20420;-73
2022/07/31 01:15:37;;;;;;;3.55;0.90;;;11.10;99.90;;;;;;4976456;28;20046;-76
2022/07/31 01:18:05;;;;;;;6.07;1.10;;;11.20;99.90;;;;;;4992678;28;20388;-76
2022/07/31 01:20:34;;;;;;;2.80;1.02;;;11.30;99.90;;;;;;5036774;28;20037;-72
2022/07/31 01:23:11;;;;;;;2.10;0.90;;;11.30;99.90;;;;;;5053904;28;20017;-76
2022/07/31 01:26:09;;;;;;;4.88;1.38;;;11.40;99.90;;;;;;5053689;28;20053;-76
2022/07/31 01:28:58;;;;;;;5.63;0.82;;;11.40;99.90;;;;;;5053445;28;20056;-72
2022/07/31 01:31:35;;;;;;;3.80;1.00;;;11.60;99.90;;;;;;5053592;28;20020;-77
2022/07/31 01:34:12;;;;;;;2.28;1.00;;;11.60;99.90;;;;;;5052887;28;20024;-76
2022/07/31 01:36:48;;;;;;;3.25;1.08;;;11.70;99.90;;;;;;5049607;28;20119;-82
2022/07/31 01:39:17;;;;;;;4.32;1.20;;;11.80;99.90;;;;;;5050250;28;20028;-79
2022/07/31 01:41:47;;;;;;;2.35;1.08;;;11.90;99.90;;;;;;5051457;28;20112;-76
2022/07/31 01:44:17;;;;;;;4.60;0.93;;;12.00;99.90;;;;;;5052609;28;20025;-77
2022/07/31 01:46:46;;;;;;;1.80;0.65;;;12.10;99.90;;;;;;5051141;28;20028;-74
2022/07/31 01:49:15;;;;;;;5.35;1.10;;;12.20;99.90;;;;;;5051508;28;20044;-76
2022/07/31 01:51:44;;;;;;;2.15;0.85;;;12.30;99.90;;;;;;5052650;28;20017;-78
2022/07/31 01:54:13;;;;;;;2.53;1.30;;;12.30;99.90;;;;;;5052534;28;20017;-78
2022/07/31 01:56:41;;;;;;;4.25;1.73;;;12.50;99.90;;;;;;5050042;28;20032;-77
2022/07/31 01:59:10;;;;;;;2.28;0.65;;;12.60;99.90;;;;;;5052146;28;20100;-72
2022/07/31 02:01:39;;;;;;;4.95;1.20;;;12.70;99.90;;;;;;5052742;28;20028;-77
2022/07/31 02:04:07;;;;;;;2.08;0.90;;;12.70;99.90;;;;;;5052461;28;20059;-75
2022/07/31 02:06:36;;;;;;;2.75;1.08;;;12.70;99.90;;;;;;5052894;28;20100;-75
2022/07/31 02:09:04;;;;;;;2.85;0.93;;;12.80;99.90;;;;;;5051581;28;20025;-74
2022/07/31 02:11:32;;;;;;;1.73;1.00;;;12.80;99.90;;;;;;5053011;28;20056;-77
2022/07/31 02:14:00;;;;;;;2.08;0.80;;;12.80;99.90;;;;;;5052480;28;20100;-79
2022/07/31 02:16:28;;;;;;;5.18;1.40;;;12.80;99.90;;;;;;5052917;28;20390;-76
2022/07/31 02:18:58;;;;;;;2.00;1.00;;;12.80;99.90;;;;;;5052786;28;20561;-76
2022/07/31 02:21:27;;;;;;;2.20;0.90;;;12.80;99.90;;;;;;5053050;28;20037;-76
2022/07/31 02:23:55;;;;;;;3.08;1.02;;;12.80;99.90;;;;;;5051795;28;20382;-77
2022/07/31 02:26:26;;;;;;;4.05;1.42;;;12.90;99.90;;;;;;5052886;28;20025;-76
2022/07/31 02:28:54;;;;;;;3.72;1.35;;;12.90;99.90;;;;;;5052919;28;20040;-72
2022/07/31 02:31:23;;;;;;;3.13;0.90;;;12.90;99.90;;;;;;5053219;28;20021;-77
2022/07/31 02:33:53;;;;;;;4.82;1.25;;;12.90;99.90;;;;;;5052739;28;20021;-77
2022/07/31 02:36:22;;;;;;;1.38;0.70;;;13.00;99.90;;;;;;5052851;28;20029;-72
2022/07/31 02:38:51;;;;;;;4.00;0.90;;;13.00;99.90;;;;;;5052819;28;20079;-74
2022/07/31 02:41:20;;;;;;;2.05;0.93;;;13.10;99.90;;;;;;5052664;28;20033;-78
2022/07/31 02:43:48;;;;;;;3.10;1.48;;;13.10;99.90;;;;;;5052776;28;20025;-72
2022/07/31 02:46:16;;;;;;;1.27;0.70;;;13.10;99.90;;;;;;5052833;28;20032;-77
2022/07/31 02:48:44;;;;;;;2.88;0.95;;;13.10;99.90;;;;;;5052554;28;20424;-78
2022/07/31 02:51:12;;;;;;;3.88;1.10;;;13.10;99.90;;;;;;5056334;28;20029;-78
2022/07/31 02:53:40;;;;;;;1.85;0.98;;;13.10;99.90;;;;;;5055991;28;20017;-77
2022/07/31 02:56:08;;;;;;;2.17;0.90;;;13.20;99.90;;;;;;5055016;28;20121;-78
2022/07/31 02:58:42;;;;;;;1.67;1.00;;;13.20;99.90;;;;;;5053816;28;20017;-75
2022/07/31 03:01:09;;;;;;;3.35;1.10;;;13.20;99.90;;;;;;5055099;28;20493;-76
2022/07/31 03:03:37;;;;;;;2.72;0.88;;;13.30;99.90;;;;;;5055113;28;20037;-71
2022/07/31 03:06:04;;;;;;;2.58;1.15;;;13.40;99.90;;;;;;5055535;28;20415;-78
2022/07/31 03:08:31;;;;;;;1.98;0.90;;;13.40;99.90;;;;;;5055375;28;20066;-79
2022/07/31 03:11:03;;;;;;;5.70;1.23;;;13.40;99.90;;;;;;5055270;28;20063;-77
2022/07/31 03:13:33;;;;;;;2.08;1.00;;;13.40;99.90;;;;;;5054747;28;20103;-73
2022/07/31 03:16:03;;;;;;;3.72;1.45;;;13.40;99.90;;;;;;5054265;28;20056;-76
2022/07/31 03:18:31;;;;;;;3.15;1.30;;;13.40;99.90;;;;;;5054463;28;20021;-77
2022/07/31 03:21:01;;;;;;;9.00;1.52;;;13.40;99.90;;;;;;5055108;28;20462;-78
2022/07/31 03:23:35;;;;;;;2.45;1.00;;;13.40;99.90;;;;;;5053888;28;20060;-73
2022/07/31 03:26:04;;;;;;;1.88;0.70;;;13.50;99.90;;;;;;5055231;28;20024;-77
2022/07/31 03:28:33;;;;;;;2.03;1.05;;;13.50;99.90;;;;;;5053692;28;20039;-78
2022/07/31 03:31:00;;;;;;;14.07;1.05;;;13.60;99.90;;;;;;5055063;28;20437;-77
2022/07/31 03:33:28;;;;;;;4.07;1.13;;;13.60;99.90;;;;;;5054867;28;20027;-77
2022/07/31 03:35:57;;;;;;;2.50;0.82;;;13.60;99.90;;;;;;5054532;28;20075;-77
2022/07/31 03:38:26;;;;;;;5.18;0.80;;;13.70;99.90;;;;;;5054948;28;20095;-78
2022/07/31 03:40:53;;;;;;;1.95;0.95;;;13.60;99.90;;;;;;5051332;28;20079;-78
2022/07/31 03:43:22;;;;;;;1.73;0.80;;;13.70;99.90;;;;;;5054925;28;20059;-76
2022/07/31 03:45:51;;;;;;;4.38;1.20;;;13.70;99.90;;;;;;5053706;28;20465;-76
2022/07/31 03:48:18;;;;;;;1.70;0.98;;;13.70;99.90;;;;;;5053100;28;20028;-76
2022/07/31 03:50:45;;;;;;;2.53;0.73;;;13.70;99.90;;;;;;5054214;28;20021;-77
2022/07/31 03:53:13;;;;;;;2.63;1.10;;;13.70;99.90;;;;;;5050989;28;20052;-76
2022/07/31 03:55:44;;;;;;;1.05;0.80;;;13.70;99.90;;;;;;5052744;28;20116;-74
2022/07/31 03:58:12;;;;;;;3.33;1.20;;;13.70;99.90;;;;;;5049339;28;20032;-75
2022/07/31 04:00:39;;;;;;;2.20;0.80;;;13.70;99.90;;;;;;5052038;28;20029;-78
2022/07/31 04:03:09;;;;;;;2.03;1.00;;;13.70;99.90;;;;;;5053181;28;20048;-77
2022/07/31 04:05:37;;;;;;;3.65;1.00;;;13.70;99.90;;;;;;5053344;28;20486;-78
2022/07/31 04:08:08;;;;;;;2.05;0.60;;;13.70;99.90;;;;;;5053812;28;20436;-76
2022/07/31 04:10:37;;;;;;;1.30;0.82;;;13.70;99.90;;;;;;5052770;28;20032;-74
2022/07/31 04:13:06;;;;;;;1.40;0.95;;;13.70;99.90;;;;;;5053260;28;20026;-77
2022/07/31 04:15:34;;;;;;;1.38;0.65;;;13.60;99.90;;;;;;5053030;28;20029;-77
2022/07/31 04:18:01;;;;;;;3.38;0.90;;;13.60;99.90;;;;;;5053472;28;20474;-74
2022/07/31 04:20:28;;;;;;;2.67;0.80;;;13.60;99.90;;;;;;5053420;28;20033;-78
2022/07/31 04:23:04;;;;;;;1.70;0.73;;;13.60;99.90;;;;;;5053267;28;20040;-77
2022/07/31 04:25:33;;;;;;;2.65;1.00;;;13.50;99.90;;;;;;5054509;28;20017;-78
2022/07/31 04:28:09;;;;;;;3.60;1.10;;;13.50;99.90;;;;;;5054593;28;20045;-79
2022/07/31 04:30:38;;;;;;;4.18;0.63;;;13.50;99.90;;;;;;5054595;28;20029;-78
2022/07/31 04:33:05;;;;;;;2.70;0.82;;;13.50;99.90;;;;;;5054487;28;20017;-77
2022/07/31 04:35:32;;;;;;;4.22;1.00;;;13.60;99.90;;;;;;5054250;28;20068;-77
2022/07/31 04:38:10;;;;;;;2.13;0.73;;;13.60;99.90;;;;;;5054175;28;20025;-80
2022/07/31 04:40:38;;;;;;;1.88;0.80;;;13.60;99.90;;;;;;5054214;28;20033;-79
2022/07/31 04:43:05;;;;;;;1.50;0.73;;;13.60;99.90;;;;;;5054154;28;20025;-78
2022/07/31 04:45:33;;;;;;;2.63;0.82;;;13.60;99.90;;;;;;5054460;28;20033;-77
2022/07/31 04:48:00;;;;;;;0.93;0.55;;;13.60;99.90;;;;;;5054120;28;20021;-78
2022/07/31 04:50:27;;;;;;;3.47;0.70;;;13.60;99.90;;;;;;5054276;28;20078;-78
2022/07/31 04:52:55;;;;;;;1.40;0.95;;;13.60;99.90;;;;;;5053413;28;20028;-77
2022/07/31 04:55:23;;;;;;;1.25;0.60;;;13.60;99.90;;;;;;5053411;28;20033;-78
2022/07/31 04:57:50;;;;;;;3.80;1.10;;;13.60;99.90;;;;;;5053564;28;20028;-78
2022/07/31 05:00:17;;;;;;;3.17;0.90;;;13.60;99.90;;;;;;5053332;28;20134;-77
2022/07/31 05:02:45;;;;;;;3.00;1.00;;;13.60;99.90;;;;;;5053339;28;20041;-78
2022/07/31 05:05:13;;;;;;;2.35;1.08;;;13.60;99.90;;;;;;5053655;28;20029;-77
2022/07/31 05:07:40;;;;;;;3.47;0.93;;;13.60;99.90;;;;;;5053708;28;20017;-77
2022/07/31 05:10:08;;;;;;;4.88;0.50;;;13.50;99.90;;;;;;5053659;28;20029;-75
2022/07/31 05:12:35;;;;;;;2.22;0.57;;;13.60;99.90;;;;;;5053522;28;20021;-78
2022/07/31 05:15:08;;;;;;;0.85;0.68;;;13.50;99.90;;;;;;5053674;28;20024;-77
2022/07/31 05:17:35;;;;;;;6.25;0.60;;;13.50;99.90;;;;;;5053746;28;20029;-77
2022/07/31 05:20:03;;;;;;;1.02;0.63;;;13.50;99.90;;;;;;5053744;28;20025;-78
2022/07/31 05:22:30;;;;;;;1.85;0.77;;;13.50;99.90;;;;;;5053708;28;20413;-78
2022/07/31 05:24:58;;;;;;;1.13;0.52;;;13.40;99.90;;;;;;5053578;28;20033;-77
2022/07/31 05:27:25;;;;;;;3.22;1.17;;;13.40;99.90;;;;;;5053390;28;20064;-78
2022/07/31 05:29:53;;;;;;;2.40;0.80;;;13.40;99.90;;;;;;5054028;28;20036;-78
2022/07/31 05:32:20;;;;;;;1.30;0.63;;;13.40;99.90;;;;;;5053719;28;20057;-78
2022/07/31 05:34:48;;;;;;;3.30;0.65;;;13.40;99.90;;;;;;5053339;28;20017;-78
2022/07/31 05:37:15;;;;;;;0.95;0.80;;;13.30;99.90;;;;;;5053293;28;20389;-75
2022/07/31 05:39:42;;;;;;;2.13;0.90;;;13.30;99.90;;;;;;5053270;28;20031;-77
2022/07/31 05:42:09;;;;;;;1.75;0.85;;;13.30;99.90;;;;;;5053243;28;20021;-76
2022/07/31 05:44:38;;;;;;;1.38;0.88;;;13.30;99.90;;;;;;5053401;28;20053;-76
2022/07/31 05:47:10;;;;;;;1.75;0.98;;;13.30;99.90;;;;;;5053207;28;20029;-76
2022/07/31 05:49:37;;;;;;;3.97;1.08;;;13.20;99.90;;;;;;5052191;28;20525;-76
2022/07/31 05:52:05;;;;;;;1.42;0.90;;;13.20;99.90;;;;;;5053358;28;20104;-75
2022/07/31 05:54:32;;;;;;;3.13;1.00;;;13.20;99.90;;;;;;5053187;28;20395;-74
2022/07/31 05:56:59;;;;;;;2.05;0.98;;;13.20;99.90;;;;;;5052986;28;20063;-76
2022/07/31 05:59:27;;;;;;;4.90;1.00;;;13.20;99.90;;;;;;5053244;28;20028;-76
2022/07/31 06:01:54;;;;;;;5.95;1.02;;;13.20;99.90;;;;;;5052834;28;20037;-75
2022/07/31 06:04:21;;;;;;;2.08;1.00;;;13.20;99.90;;;;;;5053443;28;20025;-77
2022/07/31 06:06:49;;;;;;;4.97;1.02;;;13.10;99.90;;;;;;5052965;28;20020;-76
2022/07/31 06:09:16;;;;;;;1.33;0.93;;;13.10;99.90;;;;;;5052976;28;20087;-74
2022/07/31 06:11:52;;;;;;;3.22;1.02;;;13.10;99.90;;;;;;5053034;28;20036;-77
2022/07/31 06:14:19;;;;;;;1.95;0.90;;;13.00;99.90;;;;;;5051888;28;20028;-77
2022/07/31 06:16:48;;;;;;;2.08;1.00;;;13.00;99.90;;;;;;5053056;28;20033;-76
2022/07/31 06:19:17;;;;;;;2.20;1.00;;;13.00;99.90;;;;;;5052968;28;20021;-75
2022/07/31 06:21:44;;;;;;;1.63;0.68;;;13.00;99.90;;;;;;5053479;28;20031;-76
2022/07/31 06:24:12;;;;;;;1.92;0.90;;;12.90;99.90;;;;;;5053260;28;20029;-76
2022/07/31 06:26:39;;;;;;;5.75;1.00;;;12.90;99.90;;;;;;5056878;28;20375;-77
2022/07/31 06:29:07;;;;;;;3.92;1.45;;;12.80;99.90;;;;;;5056782;28;20028;-76
2022/07/31 06:31:37;;;;;;;1.70;0.90;;;12.90;99.90;;;;;;5056719;28;20132;-77
2022/07/31 06:34:04;;;;;;;1.35;0.65;;;12.80;99.90;;;;;;5056605;28;20393;-76
2022/07/31 06:36:31;;;;;;;4.35;0.80;;;12.80;99.90;;;;;;5056607;28;20036;-77
2022/07/31 06:38:59;;;;;;;1.50;0.70;;;12.80;99.90;;;;;;5056664;28;20064;-77
2022/07/31 06:44:15;;;;;;;2.95;1.48;;;12.80;99.90;;;;;;5056829;28;20036;-77
2022/07/31 06:46:50;;;;;;;1.70;0.80;;;12.80;99.90;;;;;;5056670;28;20032;-77
2022/07/31 06:49:18;;;;;;;1.38;0.88;;;12.70;99.90;;;;;;5056526;28;20021;-77
2022/07/31 06:51:46;;;;;;;3.55;0.90;;;12.70;99.90;;;;;;5056462;28;20033;-78
2022/07/31 06:54:14;;;;;;;3.25;1.73;;;12.70;99.90;;;;;;5056575;28;20052;-75
2022/07/31 06:56:41;;;;;;;1.95;0.95;;;12.60;99.90;;;;;;5059881;28;20083;-75
2022/07/31 06:59:08;;;;;;;1.40;0.80;;;12.60;99.90;;;;;;5054336;28;20492;-75
2022/07/31 07:01:36;;;;;;;1.98;0.85;;;12.60;99.90;;;;;;5055459;28;20075;-75
2022/07/31 07:04:03;;;;;;;3.80;1.00;;;12.60;99.90;;;;;;5056549;28;20390;-75
2022/07/31 07:06:31;;;;;;;3.83;0.93;;;12.60;99.90;;;;;;5055353;28;20009;-73
2022/07/31 07:08:58;;;;;;;2.22;1.10;;;12.60;99.90;;;;;;5054810;28;20017;-73
2022/07/31 07:11:25;;;;;;;2.45;0.82;;;12.50;99.90;;;;;;5055326;28;20533;-76
2022/07/31 07:13:58;;;;;;;2.20;1.08;;;12.50;99.90;;;;;;5057297;28;20108;-74
2022/07/31 07:16:26;;;;;;;6.75;1.67;;;12.50;99.90;;;;;;5055013;28;20394;-75
2022/07/31 07:18:57;;;;;;;2.40;1.02;;;12.50;99.90;;;;;;5053659;28;20017;-74
2022/07/31 07:21:27;;;;;;;1.98;0.93;;;12.50;99.90;;;;;;5054004;28;20028;-73
2022/07/31 07:23:54;;;;;;;1.98;0.68;;;12.50;99.90;;;;;;5054882;28;20028;-74
2022/07/31 07:26:24;;;;;;;2.30;1.52;;;12.50;99.90;;;;;;5054696;28;20074;-73
2022/07/31 07:28:54;;;;;;;2.42;0.85;;;12.40;99.90;;;;;;5055817;28;20021;-75
2022/07/31 07:31:22;;;;;;;1.27;0.80;;;12.40;99.90;;;;;;5054896;28;20497;-74
2022/07/31 07:33:50;;;;;;;1.60;1.00;;;12.40;99.90;;;;;;5054876;28;20409;-75
2022/07/31 07:36:18;;;;;;;1.50;0.63;;;12.40;99.90;;;;;;5053897;28;20037;-73
2022/07/31 07:38:48;;;;;;;7.15;1.10;;;12.40;99.90;;;;;;5054511;28;20096;-75
2022/07/31 07:41:16;;;;;;;1.67;0.77;;;12.40;99.90;;;;;;5054488;28;20111;-74
2022/07/31 07:43:44;;;;;;;1.65;0.82;;;12.40;99.90;;;;;;5054858;28;20021;-74
2022/07/31 07:46:12;;;;;;;1.00;0.68;;;12.40;99.90;;;;;;5054576;28;20047;-72
2022/07/31 07:48:42;;;;;;;2.35;1.00;;;12.40;99.90;;;;;;5053235;28;20424;-72
2022/07/31 07:51:10;;;;;;;5.00;1.02;;;12.40;99.90;;;;;;5054385;28;20052;-72
2022/07/31 07:53:39;;;;;;;1.67;0.68;;;12.30;99.90;;;;;;5054502;28;20025;-72
2022/07/31 07:56:12;;;;;;;2.47;0.82;;;12.40;99.90;;;;;;5054130;28;20029;-77
2022/07/31 07:58:40;;;;;;;2.28;0.60;;;12.30;99.90;;;;;;5054293;28;20017;-75
2022/07/31 08:01:08;;;;;;;3.83;0.90;;;12.40;99.90;;;;;;5054746;28;20021;-74
2022/07/31 08:03:36;;;;;;;3.00;0.90;;;12.40;99.90;;;;;;5054726;28;20045;-73
2022/07/31 08:06:03;;;;;;;2.00;0.95;;;12.40;99.90;;;;;;5054307;28;20092;-71
2022/07/31 08:08:31;;;;;;;3.00;1.05;;;12.40;99.90;;;;;;5054053;28;20028;-73
2022/07/31 08:11:00;;;;;;;2.22;1.38;;;12.30;99.90;;;;;;5054123;28;20037;-72
2022/07/31 08:13:28;;;;;;;1.85;1.20;;;12.30;99.90;;;;;;5053980;28;20063;-72
2022/07/31 08:15:56;;;;;;;3.47;1.40;;;12.30;99.90;;;;;;5053997;28;20033;-71
2022/07/31 08:18:23;;;;;;;3.45;0.93;;;12.30;99.90;;;;;;5053785;28;20100;-72
2022/07/31 08:20:51;;;;;;;3.45;1.20;;;12.20;99.90;;;;;;5054123;28;20021;-72
2022/07/31 08:23:19;;;;;;;3.13;1.23;;;12.20;99.90;;;;;;5053707;28;20108;-72
2022/07/31 08:25:46;;;;;;;2.42;1.20;;;12.20;99.90;;;;;;5053949;28;20435;-72
2022/07/31 08:28:14;;;;;;;3.45;1.52;;;12.10;99.90;;;;;;5053692;28;20029;-74
2022/07/31 08:30:42;;;;;;;1.42;0.90;;;12.10;99.90;;;;;;5053522;28;20070;-73
2022/07/31 08:33:10;;;;;;;2.63;1.30;;;12.10;99.90;;;;;;5053791;28;20076;-73
2022/07/31 08:35:37;;;;;;;1.92;0.93;;;12.10;99.90;;;;;;5053399;28;20118;-73
2022/07/31 08:38:05;;;;;;;2.88;0.98;;;12.10;99.90;;;;;;5053674;28;20390;-73
2022/07/31 08:40:33;;;;;;;3.63;0.90;;;12.10;99.90;;;;;;5053593;28;20118;-73
2022/07/31 08:43:01;;;;;;;1.75;1.05;;;12.10;99.90;;;;;;5053414;28;20029;-74
2022/07/31 08:45:29;;;;;;;2.60;0.90;;;12.10;99.90;;;;;;5053237;28;20021;-73
2022/07/31 08:47:58;;;;;;;4.47;1.30;;;12.10;99.90;;;;;;5052778;28;20029;-74
2022/07/31 08:50:32;;;;;;;2.22;0.90;;;12.10;99.90;;;;;;5053383;28;20013;-73
2022/07/31 08:53:04;;;;;;;2.13;1.08;;;12.10;99.90;;;;;;5052834;28;20029;-75
2022/07/31 08:55:33;;;;;;;2.42;0.85;;;12.10;99.90;;;;;;5053172;28;20017;-75
2022/07/31 08:58:01;;;;;;;2.78;1.02;;;12.10;99.90;;;;;;5052704;28;20377;-74
2022/07/31 09:00:29;;;;;;;3.08;0.82;;;12.10;99.90;;;;;;5053213;28;20013;-76
2022/07/31 09:02:57;;;;;;;2.40;0.90;;;12.10;99.90;;;;;;5053456;28;20048;-75
2022/07/31 09:05:24;;;;;;;2.03;0.90;;;12.10;99.90;;;;;;5050501;28;20382;-76
2022/07/31 09:07:52;;;;;;;5.35;1.10;;;12.10;99.90;;;;;;5053103;28;20048;-73
2022/07/31 09:10:22;;;;;;;1.48;0.80;;;12.10;99.90;;;;;;5052811;28;20051;-75
2022/07/31 09:12:50;;;;;;;1.73;0.85;;;12.10;99.90;;;;;;5053103;28;20040;-73
2022/07/31 09:15:30;;;;;;;3.17;1.20;;;12.10;99.90;;;;;;5052489;28;20028;-73
2022/07/31 09:17:57;;;;;;;2.83;1.42;;;12.00;99.90;;;;;;5052792;28;20055;-73
2022/07/31 09:20:28;;;;;;;3.38;1.40;;;12.00;99.90;;;;;;5052856;28;20021;-75
2022/07/31 09:23:10;;;;;;;4.18;1.30;;;12.00;99.90;;;;;;5052735;28;20047;-75
2022/07/31 09:25:38;;;;;;;4.80;1.48;;;12.00;99.90;;;;;;5052629;28;20028;-74
2022/07/31 09:28:07;;;;;;;1.48;1.20;;;12.00;99.90;;;;;;5052638;28;20017;-74
2022/07/31 09:30:35;;;;;;;3.90;1.60;;;12.00;99.90;;;;;;5052594;28;20024;-73
2022/07/31 09:33:20;;;;;;;3.90;1.35;;;12.00;99.90;;;;;;5052547;28;20021;-73
2022/07/31 09:35:52;;;;;;;3.35;1.48;;;11.90;99.90;;;;;;5052331;28;20024;-74
2022/07/31 09:38:20;;;;;;;4.50;1.25;;;11.90;99.90;;;;;;5052324;28;20031;-71
2022/07/31 09:40:48;;;;;;;4.35;1.50;;;11.90;99.90;;;;;;5052429;28;20020;-74
2022/07/31 09:43:23;;;;;;;2.70;1.45;;;11.90;99.90;;;;;;5052554;28;20405;-74
2022/07/31 09:46:01;;;;;;;3.28;1.77;;;11.90;99.90;;;;;;5052472;28;20029;-75
2022/07/31 09:48:29;;;;;;;4.90;1.63;;;11.90;99.90;;;;;;5052241;28;20031;-73
2022/07/31 09:51:00;;;;;;;7.22;2.22;;;11.90;99.90;;;;;;5052373;28;20040;-72
2022/07/31 09:53:38;;;;;;;3.22;1.42;;;11.90;99.90;;;;;;5052505;28;20021;-72
2022/07/31 09:56:07;;;;;;;3.00;1.65;;;11.80;99.90;;;;;;5052066;28;20029;-73
2022/07/31 09:58:34;;;;;;;3.10;1.70;;;11.90;99.90;;;;;;5052229;28;20013;-74
2022/07/31 10:01:04;;;;;;;8.82;1.70;;;11.80;99.90;;;;;;5055863;28;20017;-73
2022/07/31 10:03:32;;;;;;;2.13;1.58;;;11.80;99.90;;;;;;5057050;28;20494;-72
2022/07/31 10:06:01;;;;;;;4.57;1.33;;;11.80;99.90;;;;;;5056312;28;20036;-74
2022/07/31 10:08:33;;;;;;;4.22;1.50;;;11.80;99.90;;;;;;5056126;28;20021;-72
2022/07/31 10:11:05;;;;;;;4.70;1.60;;;11.80;99.90;;;;;;5056323;28;20025;-74
2022/07/31 10:13:37;;;;;;;3.00;1.50;;;11.80;99.90;;;;;;5056345;28;20021;-73
2022/07/31 10:16:06;;;;;;;2.97;1.40;;;11.80;99.90;;;;;;5056200;28;20029;-74
2022/07/31 10:18:38;;;;;;;2.42;1.45;;;11.70;99.90;;;;;;5056045;28;20111;-74
2022/07/31 10:21:08;;;;;;;2.95;1.38;;;11.80;99.90;;;;;;5056163;28;20261;-73
2022/07/31 10:23:40;;;;;;;3.13;1.33;;;11.70;99.90;;;;;;5056028;28;20048;-72
2022/07/31 10:26:08;;;;;;;2.42;1.23;;;11.70;99.90;;;;;;5056165;28;20090;-73
2022/07/31 10:28:39;;;;;;;2.97;1.38;;;11.70;99.90;;;;;;5056078;28;20474;-73
2022/07/31 10:31:10;;;;;;;2.38;1.65;;;11.70;99.90;;;;;;5053926;28;20021;-73
2022/07/31 10:33:41;;;;;;;2.40;1.20;;;11.70;99.90;;;;;;5055787;28;20028;-74
2022/07/31 10:36:21;;;;;;;2.92;1.10;;;11.70;99.90;;;;;;5055982;28;20040;-73
2022/07/31 10:39:05;;;;;;;2.33;1.40;;;11.70;99.90;;;;;;5055876;28;20024;-72
2022/07/31 10:41:50;;;;;;;1.80;1.17;;;11.70;99.90;;;;;;5055884;28;20039;-75
2022/07/31 10:44:44;;;;;;;2.83;1.60;;;11.70;99.90;;;;;;5055542;28;20387;-73
2022/07/31 10:47:13;;;;;;;2.42;1.35;;;11.70;99.90;;;;;;5055602;28;20032;-73
2022/07/31 10:49:47;;;;;;;3.45;1.80;;;11.70;99.90;;;;;;5055570;28;20100;-76
2022/07/31 10:52:31;;;;;;;3.90;1.90;;;11.70;99.90;;;;;;5054316;28;20048;-75
2022/07/31 10:55:00;;;;;;;3.05;1.50;;;11.60;99.90;;;;;;5054682;28;20025;-75
2022/07/31 10:57:32;;;;;;;3.58;2.00;;;11.70;99.90;;;;;;5055050;28;20068;-74
2022/07/31 11:00:25;;;;;;;2.72;1.70;;;11.70;99.90;;;;;;5055449;28;20021;-73
2022/07/31 11:02:52;;;;;;;3.60;1.45;;;11.70;99.90;;;;;;5055108;28;20060;-73
2022/07/31 11:05:26;;;;;;;3.80;1.92;;;11.70;99.90;;;;;;5055846;28;20016;-75
2022/07/31 11:08:03;;;;;;;5.80;1.50;;;11.60;99.90;;;;;;5055382;28;20020;-74
2022/07/31 11:10:34;;;;;;;4.82;2.03;;;11.60;99.90;;;;;;5053208;28;20370;-75
2022/07/31 11:13:04;;;;;;;5.13;1.83;;;11.60;99.90;;;;;;5055204;28;20039;-73
2022/07/31 11:15:32;;;;;;;4.05;1.60;;;11.60;99.90;;;;;;5068749;28;20029;-75
2022/07/31 11:18:18;;;;;;;2.55;1.52;;;11.60;99.90;;;;;;5055185;28;20013;-74
2022/07/31 11:21:02;;;;;;;4.75;1.95;;;11.60;99.90;;;;;;5052697;28;20378;-75
2022/07/31 11:23:31;;;;;;;3.08;1.48;;;11.60;99.90;;;;;;5054977;28;20017;-74
2022/07/31 11:26:07;;;;;;;2.28;1.10;;;11.60;99.90;;;;;;5054865;28;20056;-74
2022/07/31 11:28:38;;;;;;;4.03;1.92;;;11.60;99.90;;;;;;5054912;28;20017;-76
2022/07/31 11:31:09;;;;;;;4.00;1.52;;;11.60;99.90;;;;;;5052641;28;20062;-75
2022/07/31 11:33:44;;;;;;;3.00;1.73;;;11.60;99.90;;;;;;5054757;28;20497;-74
2022/07/31 11:36:19;;;;;;;3.92;1.35;;;11.60;99.90;;;;;;5053114;28;20108;-75
2022/07/31 11:38:52;;;;;;;5.35;1.70;;;11.60;99.90;;;;;;5054671;28;20017;-74
2022/07/31 11:41:20;;;;;;;3.15;1.30;;;11.60;99.90;;;;;;5054655;28;20040;-73
2022/07/31 11:43:50;;;;;;;5.68;1.30;;;11.60;99.90;;;;;;5053885;28;20040;-73
2022/07/31 11:46:29;;;;;;;4.55;1.33;;;11.50;99.90;;;;;;5055727;28;20370;-73
2022/07/31 11:48:57;;;;;;;2.38;1.25;;;11.60;99.90;;;;;;5054566;28;20021;-73
2022/07/31 11:51:26;;;;;;;4.22;1.95;;;11.60;99.90;;;;;;5054869;28;20470;-73
2022/07/31 11:53:56;;;;;;;2.13;1.55;;;11.60;99.90;;;;;;5055004;28;20454;-73
2022/07/31 11:56:26;;;;;;;2.28;1.30;;;11.60;99.90;;;;;;5054653;28;20029;-73
2022/07/31 11:58:57;;;;;;;3.58;1.52;;;11.50;99.90;;;;;;5054578;28;20021;-72
2022/07/31 12:01:29;;;;;;;2.70;1.45;;;11.60;99.90;;;;;;5054697;28;20047;-73
2022/07/31 12:03:58;;;;;;;4.38;1.50;;;11.50;99.90;;;;;;5063534;28;20068;-74
2022/07/31 12:06:26;;;;;;;2.42;1.55;;;11.50;99.90;;;;;;5073260;28;20127;-74
2022/07/31 12:08:54;;;;;;;4.95;2.03;;;11.50;99.90;;;;;;5053148;28;20440;-72
2022/07/31 12:11:22;;;;;;;3.55;1.50;;;11.50;99.90;;;;;;5052873;28;20389;-72
2022/07/31 12:13:50;;;;;;;2.95;1.63;;;11.40;99.90;;;;;;5042025;28;20033;-74
2022/07/31 12:16:18;;;;;;;3.42;1.40;;;11.40;99.90;;;;;;5036743;28;20038;-75
2022/07/31 12:18:53;;;;;;;4.90;1.80;;;11.40;99.90;;;;;;5041430;28;20033;-75
2022/07/31 12:21:29;;;;;;;2.17;1.20;;;11.40;99.90;;;;;;5036959;28;20418;-75
2022/07/31 12:23:57;;;;;;;;;;;11.40;99.90;;;;;;5040617;28;20521;-73
2022/07/31 12:26:32;;;;;;;7.18;1.75;;;11.40;99.90;;;;;;5037727;28;20003;-75
2022/07/31 12:29:07;;;;;;;4.78;1.45;;;11.40;99.90;;;;;;5035247;28;20471;-73
2022/07/31 12:31:53;;;;;;;2.35;1.42;;;11.30;99.90;;;;;;5035560;28;20035;-75
2022/07/31 12:34:37;;;;;;;3.92;1.83;;;11.30;99.90;;;;;;5034266;28;20439;-75
2022/07/31 12:37:13;;;;;;;2.97;1.50;;;11.40;99.90;;;;;;5036373;28;20033;-75
2022/07/31 12:39:47;;;;;;;3.40;1.75;;;11.30;99.90;;;;;;5037439;28;20017;-75
2022/07/31 12:42:26;;;;;;;1.77;1.13;;;11.30;99.90;;;;;;5035557;28;20123;-74
2022/07/31 12:44:56;;;;;;;6.18;1.20;;;11.30;99.90;;;;;;5036458;28;20474;-74
2022/07/31 12:47:29;;;;;;;3.30;1.40;;;11.30;99.90;;;;;;5034508;28;20128;-74
2022/07/31 12:49:59;;;;;;;2.72;1.45;;;11.30;99.90;;;;;;5034698;28;20022;-75
2022/07/31 12:52:33;;;;;;;3.63;1.60;;;11.30;99.90;;;;;;5033484;28;20029;-74
2022/07/31 12:55:04;;;;;;;1.95;1.38;;;11.20;99.90;;;;;;5037651;28;20103;-76
2022/07/31 12:57:32;;;;;;;2.90;1.20;;;11.20;99.90;;;;;;5035299;28;20170;-73
2022/07/31 13:00:00;;;;;;;2.53;1.65;;;11.20;99.90;;;;;;5035719;28;20018;-74
2022/07/31 13:02:30;;;;;;;3.60;1.50;;;11.20;99.90;;;;;;5034671;28;20135;-75
2022/07/31 13:05:01;;;;;;;2.20;1.40;;;11.20;99.90;;;;;;5037867;28;20151;-75